Time;durP1;ratioP1;P1;durP2;ratioP2;P2;SDS_P1;SDS_P2;PMS_P1;PMS_P2;Temp;Humidity;BMP_temperature;BMP_pressure;BME280_temperature;BME280_humidity;BME280_pressure;Samples;Min_cycle;Max_cycle;Signal;HPM_P1;HPM_P2
2023/05/21 00:02:10;;;;;;;0.00;0.00;;;15.70;99.90;;;;;;5090999;28;20254;-62
2023/05/21 00:04:36;;;;;;;1.55;0.30;;;15.70;99.90;;;;;;5090974;28;20704;-62
2023/05/21 00:07:02;;;;;;;0.10;0.10;;;15.70;99.90;;;;;;5090772;28;20172;-62
2023/05/21 00:09:28;;;;;;;0.00;0.00;;;15.70;99.90;;;;;;5090925;28;20669;-61
2023/05/21 00:11:53;;;;;;;0.00;0.00;;;15.70;99.90;;;;;;5090804;28;20172;-61
2023/05/21 00:14:19;;;;;;;0.22;0.22;;;15.60;99.90;;;;;;5090608;28;20172;-61
2023/05/21 00:16:45;;;;;;;0.00;0.00;;;15.60;99.90;;;;;;5090962;28;20255;-61
2023/05/21 00:19:11;;;;;;;0.00;0.00;;;15.60;99.90;;;;;;5090976;28;20226;-62
2023/05/21 00:21:38;;;;;;;0.00;0.00;;;15.50;99.90;;;;;;5090998;28;20211;-61
2023/05/21 00:24:04;;;;;;;0.10;0.10;;;15.60;99.90;;;;;;5090641;28;20307;-61
2023/05/21 00:26:30;;;;;;;0.00;0.00;;;15.60;99.90;;;;;;5090860;28;20188;-61
2023/05/21 00:28:55;;;;;;;0.38;0.38;;;15.60;99.90;;;;;;5090585;28;20207;-62
2023/05/21 00:31:21;;;;;;;0.00;0.00;;;15.60;99.90;;;;;;5090824;28;20173;-62
2023/05/21 00:33:46;;;;;;;0.00;0.00;;;15.60;99.90;;;;;;5090639;28;20191;-61
2023/05/21 00:36:13;;;;;;;0.28;0.28;;;15.50;99.90;;;;;;5090997;28;20179;-62
2023/05/21 00:38:42;;;;;;;0.00;0.00;;;15.50;99.90;;;;;;5091060;28;20192;-62
2023/05/21 00:41:11;;;;;;;0.45;0.45;;;15.50;99.90;;;;;;5090998;28;20179;-62
2023/05/21 00:43:40;;;;;;;0.00;0.00;;;15.50;99.90;;;;;;5091208;28;20191;-62
2023/05/21 00:46:10;;;;;;;0.10;0.10;;;15.50;99.90;;;;;;5105527;28;20188;-63
2023/05/21 00:48:36;;;;;;;0.00;0.00;;;15.40;99.90;;;;;;5111383;28;20298;-62
2023/05/21 00:51:02;;;;;;;0.00;0.00;;;15.50;99.90;;;;;;5109824;28;20259;-62
2023/05/21 00:53:29;;;;;;;0.00;0.00;;;15.50;99.90;;;;;;5095734;28;20271;-63
2023/05/21 00:55:54;;;;;;;0.20;0.20;;;15.40;99.90;;;;;;5090997;28;20176;-62
2023/05/21 00:58:20;;;;;;;0.00;0.00;;;15.40;99.90;;;;;;5090737;28;20180;-63
2023/05/21 01:00:46;;;;;;;0.00;0.00;;;15.40;99.90;;;;;;5090908;28;20172;-63
2023/05/21 01:03:13;;;;;;;0.00;0.00;;;15.40;99.90;;;;;;5092861;28;20180;-63
2023/05/21 01:05:39;;;;;;;0.00;0.00;;;15.40;99.90;;;;;;5094489;28;20682;-63
2023/05/21 01:08:06;;;;;;;0.15;0.15;;;15.30;99.90;;;;;;5094340;28;20211;-63
2023/05/21 01:10:32;;;;;;;0.00;0.00;;;15.30;99.90;;;;;;5094645;28;20233;-63
2023/05/21 01:12:58;;;;;;;0.20;0.20;;;15.30;99.90;;;;;;5094192;28;20180;-63
2023/05/21 01:15:24;;;;;;;0.00;0.00;;;15.20;99.90;;;;;;5094492;28;20176;-63
2023/05/21 01:17:50;;;;;;;0.00;0.00;;;15.20;99.90;;;;;;5094220;28;20172;-63
2023/05/21 01:20:18;;;;;;;0.00;0.00;;;15.20;99.90;;;;;;5094267;28;20172;-63
2023/05/21 01:22:53;;;;;;;0.00;0.00;;;15.20;99.90;;;;;;5094234;28;20184;-63
2023/05/21 01:25:19;;;;;;;0.00;0.00;;;15.20;99.90;;;;;;5093833;28;20231;-63
2023/05/21 01:27:44;;;;;;;0.30;0.30;;;15.20;99.90;;;;;;5094018;28;20192;-63
2023/05/21 01:30:11;;;;;;;0.00;0.00;;;15.20;99.90;;;;;;5082471;28;20188;-63
2023/05/21 01:33:01;;;;;;;0.00;0.00;;;15.20;99.90;;;;;;5074793;28;20173;-63
2023/05/21 01:35:32;;;;;;;0.00;0.00;;;15.20;99.90;;;;;;5093995;28;20220;-62
2023/05/21 01:38:21;;;;;;;0.32;0.32;;;15.20;99.90;;;;;;5079416;28;20188;-63
2023/05/21 01:40:57;;;;;;;0.15;0.15;;;15.10;99.90;;;;;;5081308;28;20283;-61
2023/05/21 01:43:26;;;;;;;0.00;0.00;;;15.10;99.90;;;;;;5093802;28;20176;-61
2023/05/21 01:45:54;;;;;;;0.00;0.00;;;15.10;99.90;;;;;;5093561;28;20255;-61
2023/05/21 01:48:22;;;;;;;0.00;0.00;;;15.10;99.90;;;;;;5093629;28;20208;-61
2023/05/21 01:50:48;;;;;;;0.10;0.10;;;15.10;99.90;;;;;;5093614;28;20695;-60
2023/05/21 01:53:14;;;;;;;0.00;0.00;;;15.00;99.90;;;;;;5093663;28;20182;-60
2023/05/21 01:55:40;;;;;;;0.15;0.15;;;15.00;99.90;;;;;;5093814;28;20192;-61
2023/05/21 01:58:07;;;;;;;0.13;0.13;;;15.00;99.90;;;;;;5093442;28;20223;-61
2023/05/21 02:00:33;;;;;;;0.45;0.43;;;14.90;99.90;;;;;;5093576;28;20677;-60
2023/05/21 02:02:59;;;;;;;0.00;0.00;;;14.90;99.90;;;;;;5093555;28;20180;-61
2023/05/21 02:05:24;;;;;;;0.35;0.35;;;14.90;99.90;;;;;;5093509;28;20172;-61
2023/05/21 02:07:51;;;;;;;0.00;0.00;;;14.80;99.90;;;;;;5093310;28;20757;-61
2023/05/21 02:10:17;;;;;;;0.08;0.08;;;14.80;99.90;;;;;;5093376;28;20180;-61
2023/05/21 02:12:43;;;;;;;0.00;0.00;;;14.80;99.90;;;;;;5093343;28;20306;-61
2023/05/21 02:15:09;;;;;;;0.38;0.22;;;14.80;99.90;;;;;;5092456;28;20651;-61
2023/05/21 02:17:37;;;;;;;0.00;0.00;;;14.80;99.90;;;;;;5093248;28;20174;-61
2023/05/21 02:20:11;;;;;;;0.20;0.20;;;14.80;99.90;;;;;;5091789;28;20669;-61
2023/05/21 02:22:41;;;;;;;0.10;0.10;;;14.80;99.90;;;;;;5093013;28;20218;-61
2023/05/21 02:25:08;;;;;;;0.00;0.00;;;14.80;99.90;;;;;;5092600;28;20710;-61
2023/05/21 02:27:35;;;;;;;0.52;0.52;;;14.80;99.90;;;;;;5092703;28;20575;-61
2023/05/21 02:30:03;;;;;;;0.00;0.00;;;14.70;99.90;;;;;;5092726;28;20179;-60
2023/05/21 02:32:30;;;;;;;0.00;0.00;;;14.70;99.90;;;;;;5092745;28;20214;-61
2023/05/21 02:34:57;;;;;;;0.00;0.00;;;14.70;99.90;;;;;;5092497;28;20237;-61
2023/05/21 02:37:24;;;;;;;0.00;0.00;;;14.70;99.90;;;;;;5092599;28;20175;-60
2023/05/21 02:39:49;;;;;;;0.32;0.32;;;14.70;99.90;;;;;;5092525;28;20628;-60
2023/05/21 02:42:15;;;;;;;0.03;0.03;;;14.70;99.90;;;;;;5092505;28;20194;-61
2023/05/21 02:44:40;;;;;;;0.00;0.00;;;14.60;99.90;;;;;;5092653;28;20541;-61
2023/05/21 02:47:09;;;;;;;0.20;0.20;;;14.60;99.90;;;;;;5092402;28;20636;-61
2023/05/21 02:49:34;;;;;;;0.00;0.00;;;14.60;99.90;;;;;;5092514;28;20324;-60
2023/05/21 02:52:00;;;;;;;0.10;0.08;;;14.60;99.90;;;;;;5092396;28;20669;-61
2023/05/21 02:54:25;;;;;;;0.00;0.00;;;14.60;99.90;;;;;;5092587;28;20517;-61
2023/05/21 02:56:51;;;;;;;0.10;0.10;;;14.60;99.90;;;;;;5092381;28;20177;-62
2023/05/21 02:59:16;;;;;;;0.00;0.00;;;14.50;99.90;;;;;;5092250;28;20525;-62
2023/05/21 03:01:43;;;;;;;0.25;0.25;;;14.50;99.90;;;;;;5092303;28;20183;-62
2023/05/21 03:04:09;;;;;;;0.00;0.00;;;14.50;99.90;;;;;;5092248;28;20637;-62
2023/05/21 03:06:35;;;;;;;0.00;0.00;;;14.50;99.90;;;;;;5092214;28;20255;-62
2023/05/21 03:09:01;;;;;;;0.00;0.00;;;14.50;99.90;;;;;;5092208;28;20349;-62
2023/05/21 03:11:27;;;;;;;0.00;0.00;;;14.50;99.90;;;;;;5092207;28;20263;-62
2023/05/21 03:13:52;;;;;;;0.10;0.10;;;14.50;99.90;;;;;;5091940;28;20263;-61
2023/05/21 03:16:18;;;;;;;0.00;0.00;;;14.50;99.90;;;;;;5092120;28;20179;-62
2023/05/21 03:18:43;;;;;;;0.10;0.10;;;14.40;99.90;;;;;;5092171;28;20179;-62
2023/05/21 03:21:12;;;;;;;0.00;0.00;;;14.40;99.90;;;;;;5091769;28;20187;-61
2023/05/21 03:23:39;;;;;;;0.00;0.00;;;14.30;99.90;;;;;;5091731;28;20172;-61
2023/05/21 03:26:04;;;;;;;0.00;0.00;;;14.30;99.90;;;;;;5091772;28;20318;-61
2023/05/21 03:28:30;;;;;;;0.10;0.10;;;14.30;99.90;;;;;;5091305;28;20294;-61
2023/05/21 03:30:56;;;;;;;0.00;0.00;;;14.30;99.90;;;;;;5091409;28;20168;-61
2023/05/21 03:33:21;;;;;;;0.00;0.00;;;14.20;99.90;;;;;;5091515;28;20661;-61
2023/05/21 03:35:47;;;;;;;0.25;0.22;;;14.20;99.90;;;;;;5091897;28;20686;-62
2023/05/21 03:38:13;;;;;;;0.00;0.00;;;14.20;99.90;;;;;;5091680;28;20211;-62
2023/05/21 03:40:38;;;;;;;0.00;0.00;;;14.20;99.90;;;;;;5091898;28;20238;-62
2023/05/21 03:43:04;;;;;;;0.00;0.00;;;14.20;99.90;;;;;;5091624;28;20183;-61
2023/05/21 03:45:29;;;;;;;0.00;0.00;;;14.10;99.90;;;;;;5091624;28;20776;-62
2023/05/21 03:47:55;;;;;;;0.00;0.00;;;14.10;99.90;;;;;;5091351;28;20206;-62
2023/05/21 03:50:20;;;;;;;0.10;0.10;;;14.10;99.90;;;;;;5091700;28;20180;-62
2023/05/21 03:52:46;;;;;;;0.00;0.00;;;14.10;99.90;;;;;;5091638;28;20587;-62
2023/05/21 03:55:11;;;;;;;0.20;0.20;;;14.00;99.90;;;;;;5091676;28;20187;-61
2023/05/21 03:57:37;;;;;;;0.00;0.00;;;14.00;99.90;;;;;;5091664;28;20267;-61
2023/05/21 04:00:04;;;;;;;0.00;0.00;;;14.00;99.90;;;;;;5091654;28;20210;-61
2023/05/21 04:02:30;;;;;;;0.00;0.00;;;14.00;99.90;;;;;;5091645;28;20168;-61
2023/05/21 04:04:55;;;;;;;0.10;0.10;;;14.00;99.90;;;;;;5091421;28;20180;-62
2023/05/21 04:07:21;;;;;;;0.00;0.00;;;14.00;99.90;;;;;;5091373;28;20176;-61
2023/05/21 04:09:47;;;;;;;0.35;0.30;;;14.00;99.90;;;;;;5091578;28;20184;-62
2023/05/21 04:12:12;;;;;;;0.00;0.00;;;14.00;99.90;;;;;;5091548;28;20172;-61
2023/05/21 04:14:38;;;;;;;0.00;0.00;;;14.00;99.90;;;;;;5091373;28;20184;-61
2023/05/21 04:17:04;;;;;;;0.15;0.15;;;14.00;99.90;;;;;;5090992;28;20245;-61
2023/05/21 04:19:33;;;;;;;0.00;0.00;;;14.00;99.90;;;;;;5091286;28;20179;-61
2023/05/21 04:21:58;;;;;;;0.10;0.10;;;14.00;99.90;;;;;;5090972;28;20194;-61
2023/05/21 04:24:24;;;;;;;0.00;0.00;;;14.00;99.90;;;;;;5090847;28;20303;-61
2023/05/21 04:26:50;;;;;;;0.00;0.00;;;14.00;99.90;;;;;;5090888;28;20176;-61
2023/05/21 04:29:16;;;;;;;0.00;0.00;;;14.00;99.90;;;;;;5090854;28;20211;-61
2023/05/21 04:31:42;;;;;;;0.00;0.00;;;14.00;99.90;;;;;;5091064;28;20176;-61
2023/05/21 04:34:08;;;;;;;0.28;0.28;;;14.10;99.90;;;;;;5084457;28;20506;-61
2023/05/21 04:36:33;;;;;;;0.00;0.00;;;14.10;99.90;;;;;;5070818;28;20177;-62
2023/05/21 04:39:01;;;;;;;0.20;0.20;;;14.10;99.90;;;;;;5091467;28;20179;-61
2023/05/21 04:41:27;;;;;;;0.00;0.00;;;14.10;99.90;;;;;;5094903;28;20582;-61
2023/05/21 04:43:53;;;;;;;0.00;0.00;;;14.20;99.90;;;;;;5094636;28;20251;-61
2023/05/21 04:46:23;;;;;;;0.20;0.20;;;14.20;99.90;;;;;;5094989;28;20180;-61
2023/05/21 04:48:52;;;;;;;0.22;0.22;;;14.20;99.90;;;;;;5094866;28;20256;-62
2023/05/21 04:51:18;;;;;;;0.00;0.00;;;14.20;99.90;;;;;;5094661;28;20184;-61
2023/05/21 04:53:43;;;;;;;0.10;0.10;;;14.30;99.90;;;;;;5094758;28;20172;-61
2023/05/21 04:56:09;;;;;;;0.03;0.03;;;14.30;99.90;;;;;;5094480;28;20275;-61
2023/05/21 04:58:35;;;;;;;0.20;0.20;;;14.30;99.90;;;;;;5094487;28;20251;-61
2023/05/21 05:01:02;;;;;;;1.17;0.20;;;14.30;99.90;;;;;;5094411;28;20212;-62
2023/05/21 05:03:28;;;;;;;0.00;0.00;;;14.40;99.90;;;;;;5094503;28;20647;-62
2023/05/21 05:05:55;;;;;;;0.00;0.00;;;14.40;99.90;;;;;;5094267;28;20206;-61
2023/05/21 05:08:20;;;;;;;0.03;0.03;;;14.50;99.90;;;;;;5094489;28;20316;-61
2023/05/21 05:10:46;;;;;;;0.00;0.00;;;14.50;99.90;;;;;;5094413;28;20180;-62
2023/05/21 05:13:12;;;;;;;0.22;0.22;;;14.50;99.90;;;;;;5094241;28;20635;-61
2023/05/21 05:15:37;;;;;;;0.00;0.00;;;14.50;99.90;;;;;;5094199;28;20213;-61
2023/05/21 05:18:03;;;;;;;0.30;0.30;;;14.60;99.90;;;;;;5094020;28;20247;-61
2023/05/21 05:20:28;;;;;;;0.00;0.00;;;14.70;99.90;;;;;;5094079;28;20608;-61
2023/05/21 05:22:54;;;;;;;0.10;0.10;;;14.70;99.90;;;;;;5093808;28;20168;-62
2023/05/21 05:25:20;;;;;;;0.00;0.00;;;14.80;99.90;;;;;;5093707;28;20306;-61
2023/05/21 05:27:45;;;;;;;0.10;0.10;;;14.80;99.90;;;;;;5093867;28;20295;-61
2023/05/21 05:30:11;;;;;;;0.00;0.00;;;14.90;99.90;;;;;;5093592;28;20176;-62
2023/05/21 05:32:36;;;;;;;0.00;0.00;;;15.00;99.90;;;;;;5092393;28;20615;-62
2023/05/21 05:35:02;;;;;;;0.00;0.00;;;15.10;99.90;;;;;;5093712;28;20168;-61
2023/05/21 05:37:28;;;;;;;0.00;0.00;;;15.20;99.90;;;;;;5093627;28;20525;-61
2023/05/21 05:39:53;;;;;;;0.10;0.10;;;15.30;99.90;;;;;;5093428;28;20210;-61
2023/05/21 05:42:19;;;;;;;0.00;0.00;;;15.40;99.90;;;;;;5093651;28;20192;-61
2023/05/21 05:44:44;;;;;;;0.57;0.43;;;15.50;99.90;;;;;;5093462;28;20272;-62
2023/05/21 05:47:10;;;;;;;0.00;0.00;;;15.60;99.90;;;;;;5093557;28;20191;-62
2023/05/21 05:49:36;;;;;;;0.00;0.00;;;15.70;99.90;;;;;;5092136;28;20212;-62
2023/05/21 05:52:02;;;;;;;0.00;0.00;;;15.90;99.90;;;;;;5093284;28;20195;-62
2023/05/21 05:54:27;;;;;;;0.25;0.25;;;16.10;99.90;;;;;;5093437;28;20244;-61
2023/05/21 05:56:53;;;;;;;0.00;0.00;;;16.20;99.90;;;;;;5091930;28;20188;-61
2023/05/21 05:59:18;;;;;;;0.00;0.00;;;16.40;99.90;;;;;;5093195;28;20237;-62
2023/05/21 06:01:44;;;;;;;0.05;0.05;;;16.50;99.90;;;;;;5093103;28;20172;-62
2023/05/21 06:04:09;;;;;;;0.00;0.00;;;16.70;99.90;;;;;;5092855;28;20176;-62
2023/05/21 06:06:35;;;;;;;0.00;0.00;;;16.80;99.90;;;;;;5093021;28;20185;-62
2023/05/21 06:09:01;;;;;;;0.00;0.00;;;16.90;99.90;;;;;;5092724;28;20210;-61
2023/05/21 06:11:27;;;;;;;0.30;0.30;;;17.00;99.90;;;;;;5093010;28;20504;-62
2023/05/21 06:13:52;;;;;;;0.00;0.00;;;17.10;99.90;;;;;;5092626;28;20191;-62
2023/05/21 06:16:18;;;;;;;0.00;0.00;;;17.30;99.90;;;;;;5092615;28;20172;-62
2023/05/21 06:18:43;;;;;;;0.00;0.00;;;17.40;99.90;;;;;;5092774;28;20208;-62
2023/05/21 06:21:09;;;;;;;0.00;0.00;;;17.70;99.90;;;;;;5092688;28;20230;-62
2023/05/21 06:23:36;;;;;;;0.00;0.00;;;18.00;99.90;;;;;;5092762;28;20172;-61
2023/05/21 06:26:02;;;;;;;0.00;0.00;;;18.40;99.90;;;;;;5092546;28;20226;-62
2023/05/21 06:28:28;;;;;;;0.08;0.08;;;18.60;99.90;;;;;;5092465;28;20287;-62
2023/05/21 06:30:53;;;;;;;0.00;0.00;;;18.80;99.90;;;;;;5092772;28;20264;-62
2023/05/21 06:33:19;;;;;;;0.00;0.00;;;19.00;99.90;;;;;;5092701;28;20293;-62
2023/05/21 06:35:44;;;;;;;0.15;0.05;;;19.30;99.90;;;;;;5092635;28;20673;-62
2023/05/21 06:38:10;;;;;;;0.00;0.00;;;19.70;99.90;;;;;;5092427;28;20168;-62
2023/05/21 06:40:35;;;;;;;0.00;0.00;;;20.20;99.90;;;;;;5092480;28;20179;-62
2023/05/21 06:43:03;;;;;;;0.45;0.45;;;20.70;99.90;;;;;;5092321;28;20221;-62
2023/05/21 06:45:29;;;;;;;0.00;0.00;;;21.30;99.90;;;;;;5092521;28;20176;-62
2023/05/21 06:47:54;;;;;;;0.00;0.00;;;21.80;99.90;;;;;;5092118;28;20329;-62
2023/05/21 06:50:20;;;;;;;0.15;0.15;;;22.40;99.90;;;;;;5092457;28;20259;-62
2023/05/21 06:52:45;;;;;;;0.00;0.00;;;23.00;99.90;;;;;;5092251;28;20169;-62
2023/05/21 06:55:11;;;;;;;0.00;0.00;;;23.60;99.90;;;;;;5092231;28;20673;-61
2023/05/21 06:57:37;;;;;;;0.00;0.00;;;24.20;98.90;;;;;;5092498;28;20587;-62
2023/05/21 07:00:03;;;;;;;0.00;0.00;;;24.60;98.20;;;;;;5092017;28;20251;-62
2023/05/21 07:02:29;;;;;;;0.17;0.17;;;24.80;97.10;;;;;;5092315;28;20216;-61
2023/05/21 07:04:55;;;;;;;0.00;0.00;;;25.20;96.60;;;;;;5091980;28;20207;-63
2023/05/21 07:07:21;;;;;;;0.00;0.00;;;25.70;95.00;;;;;;5092424;28;20261;-62
2023/05/21 07:09:46;;;;;;;0.10;0.10;;;26.00;93.70;;;;;;5092402;28;20180;-62
2023/05/21 07:12:12;;;;;;;0.00;0.00;;;26.40;93.10;;;;;;5092211;28;20180;-62
2023/05/21 07:14:37;;;;;;;0.00;0.00;;;26.50;92.00;;;;;;5092187;28;20172;-62
2023/05/21 07:17:03;;;;;;;0.00;0.00;;;26.70;91.50;;;;;;5092194;28;20172;-62
2023/05/21 07:19:29;;;;;;;0.00;0.00;;;27.00;91.20;;;;;;5092220;28;20642;-62
2023/05/21 07:21:56;;;;;;;0.00;0.00;;;27.50;90.40;;;;;;5092060;28;20198;-62
2023/05/21 07:24:21;;;;;;;0.00;0.00;;;28.10;89.00;;;;;;5092115;28;20339;-62
2023/05/21 07:26:47;;;;;;;0.00;0.00;;;28.60;86.50;;;;;;5092341;28;20327;-62
2023/05/21 07:29:12;;;;;;;0.00;0.00;;;29.10;82.20;;;;;;5090388;28;20284;-62
2023/05/21 07:31:38;;;;;;;0.00;0.00;;;29.40;80.80;;;;;;5092214;28;20172;-61
2023/05/21 07:34:03;;;;;;;0.00;0.00;;;29.80;78.40;;;;;;5088782;28;20185;-62
2023/05/21 07:36:29;;;;;;;0.00;0.00;;;30.10;75.10;;;;;;5071847;28;20541;-61
2023/05/21 07:38:55;;;;;;;0.00;0.00;;;30.10;74.60;;;;;;5087494;28;20195;-61
2023/05/21 07:41:21;;;;;;;0.00;0.00;;;30.30;72.60;;;;;;5092026;28;20180;-62
2023/05/21 07:43:47;;;;;;;0.10;0.10;;;30.40;72.40;;;;;;5091963;28;20190;-62
2023/05/21 07:46:12;;;;;;;0.00;0.00;;;30.40;71.50;;;;;;5091933;28;20176;-62
2023/05/21 07:48:38;;;;;;;0.00;0.00;;;30.60;72.10;;;;;;5091622;28;20216;-62
2023/05/21 07:51:04;;;;;;;0.00;0.00;;;30.90;69.90;;;;;;5091736;28;20179;-62
2023/05/21 07:53:31;;;;;;;0.00;0.00;;;31.10;69.90;;;;;;5091690;28;20214;-62
2023/05/21 07:55:58;;;;;;;0.00;0.00;;;31.00;67.80;;;;;;5091775;28;20254;-62
2023/05/21 07:58:23;;;;;;;0.35;0.35;;;31.10;66.80;;;;;;5091725;28;20255;-62
2023/05/21 08:00:49;;;;;;;0.00;0.00;;;31.20;66.60;;;;;;5090565;28;20592;-62
2023/05/21 08:03:16;;;;;;;0.03;0.03;;;31.40;65.50;;;;;;5091588;28;20179;-60
2023/05/21 08:05:49;;;;;;;0.00;0.00;;;31.40;64.40;;;;;;5091632;28;20699;-60
2023/05/21 08:08:18;;;;;;;0.00;0.00;;;31.40;63.60;;;;;;5091360;28;20686;-60
2023/05/21 08:10:45;;;;;;;0.00;0.00;;;31.60;63.60;;;;;;5091747;28;20262;-60
2023/05/21 08:13:11;;;;;;;0.00;0.00;;;31.70;64.60;;;;;;5093795;28;20263;-60
2023/05/21 08:15:36;;;;;;;0.00;0.00;;;31.80;60.70;;;;;;5095861;28;20168;-60
2023/05/21 08:18:03;;;;;;;0.00;0.00;;;31.80;60.60;;;;;;5095531;28;20220;-60
2023/05/21 08:20:29;;;;;;;0.00;0.00;;;32.00;59.10;;;;;;5095752;28;20175;-60
2023/05/21 08:22:55;;;;;;;0.00;0.00;;;32.00;59.20;;;;;;5095390;28;20179;-60
2023/05/21 08:25:21;;;;;;;0.00;0.00;;;32.10;58.50;;;;;;5095415;28;20250;-62
2023/05/21 08:27:47;;;;;;;0.00;0.00;;;32.20;57.60;;;;;;5095039;28;20726;-62
2023/05/21 08:30:12;;;;;;;0.00;0.00;;;32.00;57.50;;;;;;5095388;28;20201;-62
2023/05/21 08:32:38;;;;;;;0.00;0.00;;;31.80;57.20;;;;;;5095349;28;20168;-62
2023/05/21 08:35:04;;;;;;;0.00;0.00;;;31.40;57.30;;;;;;5095197;28;20585;-62
2023/05/21 08:37:30;;;;;;;0.17;0.17;;;30.80;58.70;;;;;;5091678;28;20172;-62
2023/05/21 08:39:55;;;;;;;0.00;0.00;;;30.40;58.40;;;;;;5074783;28;20173;-62
2023/05/21 08:42:38;;;;;;;0.10;0.10;;;30.10;60.00;;;;;;5085258;28;20233;-62
2023/05/21 08:45:05;;;;;;;0.60;0.60;;;29.90;60.60;;;;;;5093999;28;20674;-62
2023/05/21 08:47:34;;;;;;;0.00;0.00;;;29.80;60.30;;;;;;5077768;28;20672;-62
2023/05/21 08:50:07;;;;;;;0.00;0.00;;;29.40;60.50;;;;;;5082274;28;20253;-61
2023/05/21 08:52:33;;;;;;;0.00;0.00;;;28.80;61.40;;;;;;5095051;28;20173;-61
2023/05/21 08:54:59;;;;;;;0.10;0.10;;;28.70;63.30;;;;;;5095023;28;20591;-61
2023/05/21 08:57:26;;;;;;;0.00;0.00;;;28.60;63.00;;;;;;5095144;28;20172;-61
2023/05/21 08:59:51;;;;;;;0.00;0.00;;;28.70;63.90;;;;;;5094929;28;20180;-63
2023/05/21 09:02:18;;;;;;;0.00;0.00;;;28.60;62.40;;;;;;5093537;28;20195;-61
2023/05/21 09:04:48;;;;;;;0.00;0.00;;;28.40;63.00;;;;;;5094838;28;20705;-61
2023/05/21 09:07:14;;;;;;;0.00;0.00;;;28.50;64.10;;;;;;5094757;28;20180;-61
2023/05/21 09:09:48;;;;;;;0.00;0.00;;;28.80;64.50;;;;;;5094795;28;20212;-61
2023/05/21 09:12:14;;;;;;;0.00;0.00;;;28.90;64.90;;;;;;5094643;28;20172;-61
2023/05/21 09:14:41;;;;;;;0.10;0.10;;;29.10;62.40;;;;;;5094733;28;20389;-61
2023/05/21 09:17:06;;;;;;;0.00;0.00;;;29.00;62.20;;;;;;5094516;28;21202;-61
2023/05/21 09:19:32;;;;;;;0.00;0.00;;;29.00;62.70;;;;;;5093248;28;20179;-62
2023/05/21 09:22:02;;;;;;;0.57;0.10;;;29.10;62.60;;;;;;5092966;28;20282;-61
2023/05/21 09:24:30;;;;;;;0.00;0.00;;;29.00;62.60;;;;;;5094057;28;20251;-62
2023/05/21 09:26:59;;;;;;;0.00;0.00;;;29.00;63.10;;;;;;5094283;28;20176;-61
2023/05/21 09:29:25;;;;;;;0.00;0.00;;;29.20;62.80;;;;;;5094245;28;20200;-62
2023/05/21 09:31:53;;;;;;;0.00;0.00;;;29.20;63.90;;;;;;5094380;28;20164;-62
2023/05/21 09:34:19;;;;;;;0.38;0.38;;;29.40;64.30;;;;;;5094287;28;20187;-62
2023/05/21 09:36:47;;;;;;;0.00;0.00;;;29.40;62.50;;;;;;5094326;28;20182;-62
2023/05/21 09:39:26;;;;;;;0.00;0.00;;;29.50;62.00;;;;;;5093911;28;20681;-62
2023/05/21 09:41:54;;;;;;;0.08;0.08;;;29.60;60.20;;;;;;5094135;28;20191;-62
2023/05/21 09:44:20;;;;;;;0.22;0.22;;;29.50;59.80;;;;;;5094066;28;20706;-62
2023/05/21 09:46:45;;;;;;;0.00;0.00;;;29.30;59.20;;;;;;5094139;28;20255;-62
2023/05/21 09:49:25;;;;;;;0.00;0.00;;;29.00;59.20;;;;;;5093775;28;20219;-62
2023/05/21 09:51:57;;;;;;;0.00;0.00;;;28.90;60.40;;;;;;5093763;28;20176;-62
2023/05/21 09:54:24;;;;;;;0.00;0.00;;;29.00;60.10;;;;;;5093971;28;20172;-62
2023/05/21 09:56:53;;;;;;;0.00;0.00;;;29.10;59.90;;;;;;5093912;28;20183;-62
2023/05/21 09:59:20;;;;;;;0.00;0.00;;;29.30;61.20;;;;;;5094005;28;20233;-63
2023/05/21 10:01:45;;;;;;;0.00;0.00;;;29.60;59.10;;;;;;5093857;28;20172;-62
2023/05/21 10:04:11;;;;;;;0.00;0.00;;;29.70;58.70;;;;;;5093651;28;20190;-62
2023/05/21 10:06:41;;;;;;;0.00;0.00;;;29.80;57.80;;;;;;5093524;28;20256;-63
2023/05/21 10:09:09;;;;;;;0.30;0.30;;;29.70;60.00;;;;;;5093453;28;20302;-62
2023/05/21 10:11:36;;;;;;;0.00;0.00;;;29.30;59.60;;;;;;5093609;28;20756;-62
2023/05/21 10:14:06;;;;;;;0.00;0.00;;;29.10;61.20;;;;;;5093309;28;20176;-62
2023/05/21 10:16:33;;;;;;;0.00;0.00;;;28.90;59.70;;;;;;5093649;28;20259;-62
2023/05/21 10:18:59;;;;;;;0.15;0.15;;;28.70;60.70;;;;;;5109106;28;20180;-63
2023/05/21 10:21:29;;;;;;;0.00;0.00;;;28.60;61.60;;;;;;5093543;28;20214;-62
2023/05/21 10:23:56;;;;;;;0.00;0.00;;;28.30;62.30;;;;;;5093028;28;20237;-62
2023/05/21 10:26:23;;;;;;;0.20;0.20;;;28.10;63.20;;;;;;5093616;28;20176;-62
2023/05/21 10:28:52;;;;;;;0.00;0.00;;;28.00;63.70;;;;;;5093001;28;20207;-62
2023/05/21 10:31:18;;;;;;;0.00;0.00;;;27.90;63.50;;;;;;5093243;28;20190;-62
2023/05/21 10:33:44;;;;;;;0.00;0.00;;;27.70;64.70;;;;;;5093162;28;20651;-62
2023/05/21 10:36:10;;;;;;;0.00;0.00;;;27.60;64.00;;;;;;5092328;28;20176;-62
2023/05/21 10:38:37;;;;;;;0.00;0.00;;;27.50;63.80;;;;;;5092715;28;20623;-62
2023/05/21 10:41:05;;;;;;;0.00;0.00;;;27.40;63.10;;;;;;5092944;28;20180;-62
2023/05/21 10:44:08;;;;;;;0.00;0.00;;;27.30;63.30;;;;;;5087344;28;20184;-62
2023/05/21 10:47:14;;;;;;;0.00;0.00;;;27.00;63.20;;;;;;5079036;28;20667;-62
2023/05/21 10:49:52;;;;;;;0.00;0.00;;;26.90;64.10;;;;;;5072522;28;20208;-62
2023/05/21 10:52:33;;;;;;;0.00;0.00;;;26.90;64.60;;;;;;5072797;28;20179;-62
2023/05/21 10:55:20;;;;;;;0.00;0.00;;;26.90;64.80;;;;;;5071240;28;20181;-62
2023/05/21 10:57:59;;;;;;;0.00;0.00;;;26.90;63.90;;;;;;5072469;28;20217;-63
2023/05/21 11:00:26;;;;;;;0.10;0.10;;;26.90;64.60;;;;;;5072592;28;20173;-63
2023/05/21 11:02:53;;;;;;;0.00;0.00;;;26.90;63.90;;;;;;5072156;28;20215;-62
2023/05/21 11:05:49;;;;;;;0.00;0.00;;;26.90;64.40;;;;;;5072519;28;20208;-63
2023/05/21 11:08:24;;;;;;;0.00;0.00;;;27.00;65.10;;;;;;5072205;28;20244;-62
2023/05/21 11:10:57;;;;;;;0.00;0.00;;;27.00;63.40;;;;;;5072281;28;20251;-62
2023/05/21 11:13:24;;;;;;;0.00;0.00;;;27.00;63.80;;;;;;5072142;28;20184;-63
2023/05/21 11:16:01;;;;;;;0.00;0.00;;;26.90;62.80;;;;;;5072164;28;20177;-62
2023/05/21 11:18:32;;;;;;;0.00;0.00;;;27.00;63.90;;;;;;5072285;28;20183;-63
2023/05/21 11:21:15;;;;;;;0.00;0.00;;;27.00;63.40;;;;;;5071902;28;20221;-62
2023/05/21 11:23:49;;;;;;;0.00;0.00;;;27.10;63.60;;;;;;5072185;28;20260;-62
2023/05/21 11:26:20;;;;;;;0.00;0.00;;;27.10;63.10;;;;;;5072041;28;20188;-62
2023/05/21 11:28:49;;;;;;;0.20;0.20;;;27.10;63.10;;;;;;5077660;28;20690;-62
2023/05/21 11:31:24;;;;;;;0.00;0.00;;;27.10;63.80;;;;;;5092290;28;20245;-63
2023/05/21 11:34:13;;;;;;;0.00;0.00;;;27.20;63.50;;;;;;5092193;28;20651;-62
2023/05/21 11:37:08;;;;;;;0.00;0.00;;;27.10;64.10;;;;;;5081299;28;20716;-63
2023/05/21 11:39:39;;;;;;;0.00;0.00;;;27.10;64.20;;;;;;5091753;28;20192;-63
2023/05/21 11:42:04;;;;;;;0.00;0.00;;;27.10;63.80;;;;;;5091844;28;20199;-63
2023/05/21 11:44:42;;;;;;;0.00;0.00;;;27.10;64.70;;;;;;5091959;28;20647;-63
2023/05/21 11:47:11;;;;;;;0.00;0.00;;;27.20;65.20;;;;;;5085747;28;20203;-62
2023/05/21 11:49:37;;;;;;;0.00;0.00;;;27.40;64.50;;;;;;5090181;28;20607;-62
2023/05/21 11:52:04;;;;;;;0.00;0.00;;;27.40;63.60;;;;;;5091927;28;20175;-63
2023/05/21 11:54:32;;;;;;;0.00;0.00;;;27.30;64.90;;;;;;5086102;28;20185;-62
2023/05/21 11:57:00;;;;;;;0.00;0.00;;;27.40;64.00;;;;;;5090445;28;20237;-62
2023/05/21 11:59:26;;;;;;;0.00;0.00;;;27.50;64.20;;;;;;5091710;28;20188;-62
2023/05/21 12:01:51;;;;;;;0.00;0.00;;;27.70;63.00;;;;;;5091452;28;20225;-63
2023/05/21 12:04:17;;;;;;;0.00;0.00;;;28.00;61.80;;;;;;5091485;28;20172;-62
2023/05/21 12:06:42;;;;;;;0.00;0.00;;;28.20;60.10;;;;;;5091414;28;20197;-62
2023/05/21 12:09:11;;;;;;;0.00;0.00;;;28.30;59.50;;;;;;5091308;28;20575;-62
2023/05/21 12:11:40;;;;;;;0.00;0.00;;;28.40;59.40;;;;;;5091563;28;20175;-63
2023/05/21 12:14:08;;;;;;;0.00;0.00;;;28.40;59.90;;;;;;5091432;28;20172;-62
2023/05/21 12:16:34;;;;;;;0.00;0.00;;;28.40;59.40;;;;;;5091558;28;20180;-62
2023/05/21 12:18:59;;;;;;;0.00;0.00;;;28.40;57.70;;;;;;5091544;28;20229;-62
2023/05/21 12:21:28;;;;;;;0.00;0.00;;;28.30;57.10;;;;;;5091589;28;20655;-62
2023/05/21 12:23:54;;;;;;;0.00;0.00;;;28.40;56.90;;;;;;5091182;28;20180;-63
2023/05/21 12:26:20;;;;;;;0.00;0.00;;;28.60;57.60;;;;;;5091547;28;20229;-63
2023/05/21 12:28:47;;;;;;;0.00;0.00;;;28.90;58.00;;;;;;5091174;28;20294;-62
2023/05/21 12:31:16;;;;;;;0.00;0.00;;;29.20;58.00;;;;;;5091432;28;20168;-62
2023/05/21 12:33:50;;;;;;;0.10;0.10;;;29.40;57.20;;;;;;5091269;28;20187;-62
2023/05/21 12:36:26;;;;;;;0.00;0.00;;;29.50;57.20;;;;;;5091212;28;20172;-62
2023/05/21 12:38:52;;;;;;;0.47;0.47;;;29.80;55.70;;;;;;5091078;28;20270;-63
2023/05/21 12:41:18;;;;;;;0.00;0.00;;;30.10;56.40;;;;;;5091187;28;20259;-62
2023/05/21 12:43:45;;;;;;;0.00;0.00;;;30.30;55.30;;;;;;5091168;28;20714;-63
2023/05/21 12:46:13;;;;;;;0.00;0.00;;;30.30;56.20;;;;;;5091217;28;20191;-62
2023/05/21 12:48:41;;;;;;;0.00;0.00;;;30.30;55.30;;;;;;5091210;28;20596;-62
2023/05/21 12:51:07;;;;;;;0.00;0.00;;;30.60;54.50;;;;;;5091087;28;20184;-62